Wetterdaten: Woche 09.03.09 - 15.03.09 (KW11)
Datum Zeit Temp. A. Feuchte A. Luftdruck Regen Wind Richtung Taupunkt Windchill Windben
09.03.2009 00:00 7,7 C 72 % 1005,2 hPa 0,3 l/m 8,1 km/h W-NW 2,9 C 6,4 C 19,7 km/h
09.03.2009 01:00 7,6 C 73 % 1004,7 hPa 0,0 l/m 8,1 km/h W-NW 3,0 C 6,3 C 21,7 km/h
09.03.2009 02:00 7,7 C 72 % 1003,8 hPa 0,0 l/m 11,8 km/h NW 2,9 C 4,0 C 27,3 km/h
09.03.2009 03:00 7,7 C 72 % 1003,0 hPa 0,0 l/m 12,3 km/h NW 2,8 C 3,8 C 30,6 km/h
09.03.2009 04:00 7,4 C 72 % 1002,9 hPa 0,0 l/m 6,5 km/h N-NO 2,6 C 6,6 C 22,5 km/h
09.03.2009 05:00 7,1 C 74 % 1002,9 hPa 0,0 l/m 6,6 km/h W-NW 2,7 C 6,6 C 18,1 km/h
09.03.2009 06:00 6,4 C 79 % 1003,4 hPa 0,6 l/m 12,5 km/h W 3,0 C 2,2 C 29,8 km/h
09.03.2009 07:00 5,8 C 81 % 1003,7 hPa 1,5 l/m 16,4 km/h W 2,7 C -0,5 C 39,0 km/h
09.03.2009 08:00 6,0 C 79 % 1003,7 hPa 0,0 l/m 17,2 km/h W-NW 2,6 C -0,7 C 37,0 km/h
09.03.2009 09:00 6,7 C 75 % 1004,4 hPa 0,0 l/m 16,0 km/h W-NW 2,5 C 0,6 C 35,4 km/h
09.03.2009 10:00 7,1 C 70 % 1005,3 hPa 0,0 l/m 13,7 km/h W 2,0 C 2,3 C 35,4 km/h
09.03.2009 11:00 6,2 C 72 % 1006,2 hPa 0,0 l/m 20,1 km/h W 1,4 C -1,7 C 47,5 km/h
09.03.2009 12:00 5,6 C 71 % 1007,1 hPa 0,0 l/m 20,9 km/h W 0,8 C -2,7 C 56,3 km/h
09.03.2009 13:00 5,8 C 68 % 1007,2 hPa 0,3 l/m 16,9 km/h W-NW 0,3 C -0,8 C 40,2 km/h
09.03.2009 14:00 6,1 C 63 % 1007,3 hPa 0,0 l/m 16,9 km/h W-NW -0,5 C -0,5 C 37,8 km/h
09.03.2009 15:00 5,5 C 67 % 1007,8 hPa 0,0 l/m 14,7 km/h W -0,2 C -0,1 C 34,9 km/h
09.03.2009 16:00 5,0 C 68 % 1008,3 hPa 0,0 l/m 15,8 km/h W -0,3 C -1,3 C 36,2 km/h
09.03.2009 17:00 4,8 C 71 % 1009,2 hPa 0,0 l/m 15,4 km/h W -0,1 C -1,3 C 32,2 km/h
09.03.2009 18:00 3,6 C 79 % 1010,2 hPa 0,0 l/m 12,6 km/h W-NW 0,3 C -1,2 C 27,0 km/h
09.03.2009 19:00 4,2 C 72 % 1010,7 hPa 0,0 l/m 13,9 km/h W -0,4 C -1,3 C 32,2 km/h
09.03.2009 20:00 4,5 C 68 % 1011,3 hPa 0,0 l/m 12,1 km/h W-NW -0,9 C 0,1 C 26,5 km/h
09.03.2009 21:00 4,7 C 65 % 1011,8 hPa 0,0 l/m 12,8 km/h NW -1,3 C -0,1 C 28,6 km/h
09.03.2009 22:00 4,4 C 67 % 1012,0 hPa 0,0 l/m 11,5 km/h W -1,2 C 0,4 C 27,3 km/h
09.03.2009 23:00 4,1 C 70 % 1012,5 hPa 0,0 l/m 11,9 km/h W-NW -0,8 C -0,2 C 26,1 km/h
10.03.2009 00:00 4,0 C 71 % 1012,8 hPa 0,0 l/m 10,4 km/h W-NW -0,8 C 0,7 C 26,6 km/h
10.03.2009 01:00 4,2 C 71 % 1012,8 hPa 0,3 l/m 13,6 km/h SW -0,7 C -1,1 C 35,4 km/h
10.03.2009 02:00 4,3 C 71 % 1012,5 hPa 0,0 l/m 14,9 km/h W -0,5 C -1,7 C 32,2 km/h
10.03.2009 03:00 4,4 C 70 % 1012,5 hPa 0,0 l/m 15,0 km/h W -0,6 C -1,5 C 37,4 km/h
10.03.2009 04:00 4,4 C 73 % 1013,2 hPa 0,3 l/m 16,9 km/h W -0,1 C -2,5 C 39,4 km/h
10.03.2009 05:00 4,6 C 71 % 1013,7 hPa 0,0 l/m 15,4 km/h W -0,2 C -1,6 C 35,8 km/h
10.03.2009 06:00 4,9 C 70 % 1014,1 hPa 0,0 l/m 16,5 km/h W-NW -0,2 C -1,9 C 35,4 km/h
10.03.2009 07:00 4,8 C 71 % 1014,5 hPa 0,0 l/m 15,4 km/h W-SW -0,1 C -1,4 C 33,8 km/h
10.03.2009 08:00 6,0 C 65 % 1015,0 hPa 0,0 l/m 13,8 km/h W -0,0 C 0,9 C 33,3 km/h
10.03.2009 09:00 7,0 C 60 % 1014,8 hPa 0,0 l/m 13,8 km/h W -0,3 C 2,1 C 29,8 km/h
10.03.2009 10:00 7,7 C 57 % 1015,0 hPa 0,0 l/m 14,7 km/h W-NW -0,3 C 2,5 C 33,0 km/h
10.03.2009 11:00 8,0 C 56 % 1015,2 hPa 0,0 l/m 14,8 km/h W-SW -0,2 C 2,8 C 31,8 km/h
10.03.2009 12:00 8,2 C 55 % 1014,6 hPa 0,0 l/m 12,9 km/h W-NW -0,4 C 4,0 C 29,8 km/h
10.03.2009 13:00 8,6 C 54 % 1014,0 hPa 0,0 l/m 13,9 km/h W -0,2 C 3,9 C 35,0 km/h
10.03.2009 14:00 8,3 C 57 % 1013,4 hPa 0,0 l/m 11,5 km/h W 0,2 C 4,8 C 26,2 km/h
10.03.2009 15:00 6,8 C 68 % 1013,3 hPa 0,0 l/m 9,1 km/h SW 1,1 C 4,8 C 23,7 km/h
10.03.2009 16:00 7,2 C 66 % 1012,4 hPa 0,0 l/m 6,6 km/h S-SW 1,2 C 6,6 C 16,5 km/h
10.03.2009 17:00 6,8 C 65 % 1011,9 hPa 0,0 l/m 1,0 km/h W-NW 0,8 C 6,8 C 5,2 km/h
10.03.2009 18:00 6,4 C 66 % 1011,7 hPa 0,0 l/m 3,6 km/h W-SW 0,5 C 6,4 C 8,9 km/h
10.03.2009 19:00 6,2 C 65 % 1011,3 hPa 0,0 l/m 4,2 km/h SW 0,1 C 6,2 C 8,9 km/h
10.03.2009 20:00 5,7 C 67 % 1010,9 hPa 0,0 l/m 0,4 km/h SW 0,1 C 5,7 C 3,2 km/h
10.03.2009 21:00 5,5 C 67 % 1010,6 hPa 0,0 l/m 0,2 km/h N -0,1 C 5,5 C 2,8 km/h
10.03.2009 22:00 6,0 C 63 % 1009,9 hPa 0,0 l/m 2,7 km/h W-NW -0,5 C 6,0 C 7,2 km/h
10.03.2009 23:00 6,1 C 63 % 1009,1 hPa 0,0 l/m 0,4 km/h N -0,4 C 6,1 C 4,0 km/h
11.03.2009 00:00 6,4 C 61 % 1008,3 hPa 0,0 l/m 1,5 km/h SO -0,7 C 6,4 C 8,1 km/h
11.03.2009 01:00 6,5 C 61 % 1007,6 hPa 0,0 l/m 1,9 km/h W-SW -0,5 C 6,5 C 8,0 km/h
11.03.2009 02:00 6,7 C 61 % 1007,2 hPa 0,0 l/m 3,7 km/h S -0,2 C 6,7 C 13,7 km/h
11.03.2009 03:00 5,9 C 71 % 1006,8 hPa 0,3 l/m 4,5 km/h W-SW 0,9 C 5,8 C 12,9 km/h
11.03.2009 04:00 4,5 C 83 % 1006,5 hPa 0,9 l/m 1,5 km/h S 1,9 C 4,5 C 6,4 km/h
11.03.2009 05:00 4,1 C 88 % 1006,6 hPa 0,6 l/m 1,9 km/h SO 2,2 C 4,1 C 8,4 km/h
11.03.2009 06:00 4,6 C 84 % 1006,8 hPa 1,8 l/m 11,0 km/h W-NW 2,2 C 1,0 C 30,6 km/h
11.03.2009 07:00 4,8 C 83 % 1007,6 hPa 0,3 l/m 11,1 km/h NW 2,1 C 1,1 C 28,6 km/h
11.03.2009 08:00 5,3 C 80 % 1008,3 hPa 0,3 l/m 15,2 km/h W-NW 2,2 C -0,6 C 33,8 km/h
11.03.2009 09:00 6,1 C 79 % 1008,8 hPa 0,3 l/m 14,7 km/h SW 2,7 C 0,5 C 30,2 km/h
11.03.2009 10:00 6,2 C 79 % 1009,9 hPa 0,3 l/m 13,9 km/h W-NW 2,8 C 1,1 C 30,2 km/h
11.03.2009 11:00 6,0 C 79 % 1011,3 hPa 0,6 l/m 13,7 km/h NW 2,6 C 0,9 C 32,2 km/h
11.03.2009 12:00 5,5 C 81 % 1012,4 hPa 0,6 l/m 11,5 km/h W-NW 2,5 C 1,7 C 24,5 km/h
11.03.2009 13:00 4,6 C 85 % 1013,8 hPa 0,9 l/m 15,7 km/h NW 2,4 C -1,7 C 29,0 km/h
11.03.2009 14:00 5,4 C 84 % 1014,8 hPa 0,3 l/m 10,0 km/h NW 2,8 C 2,5 C 23,3 km/h
11.03.2009 15:00 6,8 C 71 % 1015,3 hPa 0,0 l/m 11,1 km/h NW 1,9 C 3,5 C 21,7 km/h
11.03.2009 16:00 6,0 C 72 % 1016,1 hPa 0,0 l/m 8,6 km/h W-NW 1,3 C 4,2 C 17,7 km/h
11.03.2009 17:00 5,6 C 73 % 1016,7 hPa 0,0 l/m 6,5 km/h W-NW 1,1 C 5,4 C 14,9 km/h
11.03.2009 18:00 5,1 C 73 % 1017,8 hPa 0,0 l/m 8,9 km/h NW 0,6 C 3,1 C 20,5 km/h
11.03.2009 19:00 4,5 C 77 % 1019,1 hPa 0,3 l/m 12,1 km/h N-NW 0,8 C 0,2 C 26,5 km/h
11.03.2009 20:00 4,2 C 80 % 1020,1 hPa 0,0 l/m 10,4 km/h W-NW 1,0 C 0,9 C 21,3 km/h
11.03.2009 21:00 4,3 C 78 % 1020,7 hPa 0,3 l/m 9,9 km/h NW 0,8 C 1,3 C 22,5 km/h
11.03.2009 22:00 4,0 C 77 % 1021,0 hPa 0,0 l/m 7,9 km/h W 0,3 C 2,7 C 19,7 km/h
11.03.2009 23:00 4,2 C 74 % 1020,9 hPa 0,0 l/m 9,4 km/h W-NW -0,0 C 1,7 C 23,7 km/h
12.03.2009 00:00 4,1 C 73 % 1021,0 hPa 0,0 l/m 7,7 km/h W -0,3 C 2,9 C 19,7 km/h
12.03.2009 01:00 4,2 C 73 % 1020,9 hPa 0,0 l/m 8,4 km/h W-SW -0,3 C 2,4 C 21,7 km/h
12.03.2009 02:00 4,3 C 74 % 1020,4 hPa 0,0 l/m 10,1 km/h W 0,0 C 1,2 C 24,1 km/h
12.03.2009 03:00 4,1 C 76 % 1020,5 hPa 0,0 l/m 10,0 km/h W-NW 0,3 C 1,1 C 24,5 km/h
12.03.2009 04:00 4,1 C 76 % 1020,8 hPa 0,0 l/m 9,4 km/h W-NW 0,2 C 1,6 C 23,7 km/h
12.03.2009 05:00 3,8 C 77 % 1020,9 hPa 0,0 l/m 8,0 km/h W 0,2 C 2,3 C 18,5 km/h
12.03.2009 06:00 3,8 C 76 % 1020,8 hPa 0,0 l/m 8,8 km/h W-NW -0,1 C 1,7 C 21,3 km/h
12.03.2009 07:00 4,0 C 77 % 1021,4 hPa 0,0 l/m 7,0 km/h NW 0,3 C 3,5 C 18,1 km/h
12.03.2009 08:00 5,1 C 73 % 1021,4 hPa 0,0 l/m 8,6 km/h W-NW 0,6 C 3,3 C 20,5 km/h
12.03.2009 09:00 6,4 C 68 % 1021,5 hPa 0,0 l/m 12,4 km/h NW 0,9 C 2,2 C 28,6 km/h
12.03.2009 10:00 6,0 C 72 % 1021,5 hPa 0,6 l/m 10,8 km/h W-SW 1,3 C 2,7 C 22,9 km/h
12.03.2009 11:00 6,3 C 72 % 1021,3 hPa 0,0 l/m 8,9 km/h W 1,6 C 4,5 C 19,7 km/h
12.03.2009 12:00 6,6 C 67 % 1021,0 hPa 0,0 l/m 6,9 km/h W-NW 0,8 C 6,1 C 16,5 km/h
12.03.2009 13:00 7,4 C 61 % 1020,1 hPa 0,0 l/m 10,4 km/h NW 0,4 C 4,5 C 24,5 km/h
12.03.2009 14:00 6,9 C 67 % 1019,7 hPa 0,3 l/m 9,1 km/h W 1,2 C 4,9 C 22,5 km/h
12.03.2009 15:00 7,4 C 64 % 1019,2 hPa 0,0 l/m 10,3 km/h W-NW 1,1 C 4,7 C 27,0 km/h
12.03.2009 16:00 7,0 C 67 % 1019,1 hPa 0,0 l/m 10,6 km/h W 1,2 C 4,0 C 27,0 km/h
12.03.2009 17:00 6,0 C 71 % 1019,2 hPa 0,0 l/m 9,4 km/h W 1,1 C 3,6 C 25,0 km/h
12.03.2009 18:00 5,8 C 72 % 1019,1 hPa 0,0 l/m 9,8 km/h W 1,2 C 3,1 C 24,5 km/h
12.03.2009 19:00 5,6 C 71 % 1018,6 hPa 0,0 l/m 10,9 km/h W-SW 0,7 C 2,2 C 23,8 km/h
12.03.2009 20:00 5,2 C 72 % 1018,1 hPa 0,0 l/m 11,0 km/h SW 0,5 C 1,7 C 25,8 km/h
12.03.2009 21:00 4,4 C 78 % 1017,7 hPa 0,3 l/m 10,4 km/h W 1,0 C 1,2 C 27,0 km/h
12.03.2009 22:00 3,7 C 84 % 1017,0 hPa 1,2 l/m 7,8 km/h W 1,2 C 2,4 C 18,5 km/h
12.03.2009 23:00 3,6 C 86 % 1016,2 hPa 1,2 l/m 8,8 km/h W-SW 1,5 C 1,5 C 25,8 km/h
13.03.2009 00:00 3,7 C 86 % 1015,5 hPa 1,8 l/m 10,3 km/h W-NW 1,6 C 0,4 C 23,3 km/h
13.03.2009 01:00 3,7 C 86 % 1014,7 hPa 2,1 l/m 10,7 km/h SW 1,5 C 0,2 C 26,1 km/h
13.03.2009 02:00 4,3 C 84 % 1013,5 hPa 0,6 l/m 13,2 km/h W 1,7 C -0,8 C 31,0 km/h
13.03.2009 03:00 4,8 C 82 % 1012,8 hPa 0,3 l/m 13,0 km/h W-NW 2,0 C -0,1 C 29,0 km/h
13.03.2009 04:00 4,8 C 83 % 1012,6 hPa 1,2 l/m 14,3 km/h W 2,1 C -0,8 C 33,8 km/h
13.03.2009 05:00 4,8 C 83 % 1012,3 hPa 0,0 l/m 14,1 km/h W 2,2 C -0,6 C 30,6 km/h
13.03.2009 06:00 5,5 C 80 % 1012,3 hPa 0,3 l/m 13,6 km/h W 2,4 C 0,5 C 29,0 km/h
13.03.2009 07:00 5,5 C 81 % 1012,8 hPa 0,3 l/m 12,0 km/h W 2,6 C 1,4 C 29,4 km/h
13.03.2009 08:00 6,0 C 80 % 1013,5 hPa 0,0 l/m 11,7 km/h W-NW 2,9 C 2,1 C 27,0 km/h
13.03.2009 09:00 6,8 C 76 % 1014,1 hPa 0,0 l/m 12,1 km/h W 2,8 C 2,8 C 26,5 km/h
13.03.2009 10:00 7,7 C 72 % 1014,6 hPa 0,0 l/m 13,5 km/h W 3,0 C 3,1 C 30,6 km/h
13.03.2009 11:00 7,4 C 71 % 1015,2 hPa 0,0 l/m 9,2 km/h W-NW 2,5 C 5,5 C 22,5 km/h
13.03.2009 12:00 8,3 C 67 % 1015,3 hPa 0,3 l/m 10,7 km/h W-NW 2,4 C 5,5 C 26,1 km/h
13.03.2009 13:00 9,2 C 62 % 1015,1 hPa 0,0 l/m 17,3 km/h W 2,2 C 3,2 C 36,6 km/h
13.03.2009 14:00 9,3 C 62 % 1015,3 hPa 0,0 l/m 17,3 km/h W-SW 2,2 C 3,3 C 36,6 km/h
13.03.2009 15:00 6,1 C 80 % 1016,5 hPa 2,7 l/m 9,1 km/h W-SW 2,9 C 3,7 C 27,8 km/h
13.03.2009 16:00 6,3 C 80 % 1016,7 hPa 1,2 l/m 10,1 km/h NW 3,1 C 3,5 C 29,4 km/h
13.03.2009 17:00 6,1 C 80 % 1017,7 hPa 0,9 l/m 7,5 km/h N-NO 2,8 C 4,8 C 18,5 km/h
13.03.2009 18:00 5,6 C 84 % 1018,5 hPa 1,2 l/m 3,4 km/h W-NW 3,1 C 5,6 C 12,1 km/h
13.03.2009 19:00 6,9 C 74 % 1018,8 hPa 0,0 l/m 8,9 km/h NW 2,6 C 5,0 C 24,1 km/h
13.03.2009 20:00 7,2 C 70 % 1019,4 hPa 0,0 l/m 9,4 km/h W-NW 2,1 C 4,9 C 22,5 km/h
13.03.2009 21:00 7,4 C 69 % 1019,7 hPa 0,0 l/m 9,0 km/h NW 2,0 C 5,4 C 20,9 km/h
13.03.2009 22:00 6,7 C 74 % 1020,5 hPa 0,6 l/m 7,4 km/h N-NO 2,4 C 5,6 C 16,1 km/h
13.03.2009 23:00 5,2 C 84 % 1020,7 hPa 0,9 l/m 5,6 km/h NW 2,8 C 4,8 C 14,5 km/h
14.03.2009 00:00 5,1 C 87 % 1021,0 hPa 0,3 l/m 4,8 km/h NW 3,0 C 5,1 C 12,9 km/h
14.03.2009 01:00 5,1 C 86 % 1020,8 hPa 0,3 l/m 5,7 km/h NW 2,9 C 5,0 C 11,7 km/h
14.03.2009 02:00 4,9 C 85 % 1020,6 hPa 0,0 l/m 5,5 km/h W 2,5 C 4,9 C 12,9 km/h
14.03.2009 03:00 5,0 C 84 % 1020,5 hPa 0,0 l/m 3,8 km/h N-NW 2,5 C 5,0 C 10,1 km/h
14.03.2009 04:00 4,9 C 84 % 1020,7 hPa 0,0 l/m 1,0 km/h N-NO 2,4 C 4,9 C 5,2 km/h
14.03.2009 05:00 4,6 C 86 % 1021,0 hPa 0,0 l/m 0,6 km/h N 2,4 C 4,6 C 4,4 km/h
14.03.2009 06:00 3,9 C 85 % 1021,3 hPa 0,0 l/m 0,0 km/h N 1,7 C 3,9 C 0,8 km/h
14.03.2009 07:00 3,6 C 88 % 1021,6 hPa 0,0 l/m 0,1 km/h N 1,7 C 3,6 C 2,0 km/h
14.03.2009 08:00 5,9 C 85 % 1021,7 hPa 0,0 l/m 0,8 km/h W 3,5 C 5,9 C 4,8 km/h
14.03.2009 09:00 7,8 C 74 % 1021,7 hPa 0,0 l/m 2,8 km/h O-NO 3,4 C 7,8 C 8,4 km/h
14.03.2009 10:00 8,6 C 70 % 1021,6 hPa 0,0 l/m 2,1 km/h N-NO 3,5 C 8,6 C 8,0 km/h
14.03.2009 11:00 9,6 C 64 % 1021,3 hPa 0,0 l/m 2,5 km/h NO 3,0 C 9,6 C 7,6 km/h
14.03.2009 12:00 9,9 C 63 % 1020,6 hPa 0,0 l/m 3,3 km/h O-NO 3,1 C 9,9 C 8,9 km/h
14.03.2009 13:00 9,9 C 66 % 1020,0 hPa 0,0 l/m 4,2 km/h O 3,9 C 9,9 C 12,1 km/h
14.03.2009 14:00 9,8 C 67 % 1019,8 hPa 0,0 l/m 5,1 km/h O-NO 4,0 C 9,8 C 10,1 km/h
14.03.2009 15:00 9,5 C 66 % 1019,4 hPa 0,0 l/m 5,0 km/h O 3,6 C 9,3 C 10,9 km/h
14.03.2009 16:00 9,3 C 66 % 1019,2 hPa 0,0 l/m 3,2 km/h O-SO 3,2 C 9,3 C 8,4 km/h
14.03.2009 17:00 8,6 C 68 % 1019,2 hPa 0,0 l/m 2,3 km/h O-SO 2,9 C 8,6 C 6,8 km/h
14.03.2009 18:00 7,7 C 70 % 1019,5 hPa 0,0 l/m 0,1 km/h N 2,6 C 7,7 C 2,4 km/h
14.03.2009 19:00 6,9 C 73 % 1019,6 hPa 0,0 l/m 0,4 km/h N 2,4 C 6,9 C 3,2 km/h
14.03.2009 20:00 5,2 C 82 % 1019,6 hPa 0,0 l/m 0,0 km/h N 2,3 C 5,2 C 0,0 km/h
14.03.2009 21:00 5,7 C 81 % 1019,6 hPa 0,0 l/m 0,1 km/h N 2,7 C 5,7 C 2,8 km/h
14.03.2009 22:00 5,9 C 80 % 1019,6 hPa 0,0 l/m 0,6 km/h N 2,8 C 5,9 C 5,2 km/h
14.03.2009 23:00 5,3 C 82 % 1019,8 hPa 0,0 l/m 0,1 km/h N 2,5 C 5,3 C 2,4 km/h
15.03.2009 00:00 5,2 C 84 % 1019,8 hPa 0,0 l/m 0,3 km/h N 2,6 C 5,2 C 2,4 km/h
15.03.2009 01:00 5,0 C 86 % 1019,8 hPa 0,0 l/m 0,2 km/h N 2,8 C 5,0 C 1,2 km/h
15.03.2009 02:00 4,8 C 88 % 1019,4 hPa 0,0 l/m 0,0 km/h N 3,0 C 4,8 C 0,8 km/h
15.03.2009 03:00 4,8 C 90 % 1019,0 hPa 0,0 l/m 0,0 km/h N 3,3 C 4,8 C 0,4 km/h
15.03.2009 04:00 4,5 C 91 % 1018,9 hPa 0,0 l/m 0,0 km/h N 3,1 C 4,5 C 0,4 km/h
15.03.2009 05:00 4,3 C 91 % 1018,9 hPa 0,0 l/m 0,0 km/h N 2,9 C 4,3 C 0,0 km/h
15.03.2009 06:00 3,8 C 91 % 1018,9 hPa 0,0 l/m 0,0 km/h N 2,5 C 3,8 C 0,4 km/h
15.03.2009 07:00 4,2 C 91 % 1019,0 hPa 0,3 l/m 0,0 km/h N 2,9 C 4,2 C 0,0 km/h
15.03.2009 08:00 4,5 C 92 % 1019,5 hPa 0,3 l/m 0,1 km/h N 3,3 C 4,5 C 1,6 km/h
15.03.2009 09:00 4,8 C 92 % 1019,8 hPa 0,0 l/m 0,2 km/h N 3,6 C 4,8 C 2,8 km/h
15.03.2009 10:00 8,5 C 87 % 1019,7 hPa 0,0 l/m 5,0 km/h NW 6,4 C 8,1 C 16,1 km/h
15.03.2009 11:00 9,8 C 80 % 1020,0 hPa 0,6 l/m 8,0 km/h W-SW 6,5 C 8,7 C 19,7 km/h
15.03.2009 12:00 9,3 C 82 % 1020,5 hPa 1,2 l/m 7,5 km/h NW 6,3 C 8,4 C 18,9 km/h
15.03.2009 13:00 7,9 C 86 % 1021,4 hPa 2,4 l/m 7,1 km/h NW 5,7 C 6,9 C 16,9 km/h
15.03.2009 14:00 8,4 C 85 % 1021,8 hPa 0,0 l/m 6,6 km/h N 6,1 C 7,9 C 16,1 km/h
15.03.2009 15:00 9,0 C 80 % 1021,9 hPa 0,0 l/m 6,1 km/h W-NW 5,8 C 9,0 C 17,7 km/h
15.03.2009 16:00 8,8 C 79 % 1022,2 hPa 0,0 l/m 9,8 km/h W-NW 5,4 C 6,4 C 24,1 km/h
15.03.2009 17:00 8,2 C 82 % 1022,7 hPa 0,6 l/m 6,7 km/h W 5,3 C 7,9 C 16,9 km/h
15.03.2009 18:00 7,8 C 82 % 1023,5 hPa 0,0 l/m 5,6 km/h W 4,9 C 7,5 C 15,7 km/h
15.03.2009 19:00 7,5 C 83 % 1024,3 hPa 0,3 l/m 7,8 km/h W 4,8 C 6,5 C 20,5 km/h
15.03.2009 20:00 7,4 C 83 % 1025,0 hPa 0,0 l/m 8,6 km/h W-NW 4,7 C 5,7 C 20,9 km/h
15.03.2009 21:00 7,3 C 83 % 1025,3 hPa 0,0 l/m 8,0 km/h W-NW 4,5 C 6,0 C 22,1 km/h
15.03.2009 22:00 7,3 C 81 % 1025,6 hPa 0,0 l/m 8,7 km/h NW 4,3 C 5,6 C 20,1 km/h
15.03.2009 23:00 7,3 C 81 % 1026,0 hPa 0,0 l/m 9,0 km/h NW 4,3 C 5,3 C 22,1 km/h
Min-Datum _ 09.03.09 10.03.09 09.03.09 - 10.03.09 - 09.03.09 10.03.09 10.03.09
_ Min-Zeit 18:15 12:45 04:30 - 20:45 - 22:00 03:45 21:45
Minimum _ 3,4 C 52 % 1002,8 hPa - 0,0 km/h - -1,4 C -3,2 C 0,0 km/h
Max-Datum _ 14.03.09 15.03.09 15.03.09 13.03.09 09.03.09 - 15.03.09 14.03.09 09.03.09
_ Max-Zeit 13:15 10:00 23:45 15:30 11:30 - 10:15 12:45 12:30
Maximum _ 10,6 C 93 % 1026,1 hPa 2,7 l/m 20,9 km/h
W
- 7,0 C 10,4 C 59,5 km/h
W
Durchschnitt _ 6,0 C 75 % 1015,7 hPa #35,4 l/m 8,5 km/h W-NW 1,8 C 3,6 C 20,6 km/h